Time;durP1;ratioP1;P1;durP2;ratioP2;P2;SDS_P1;SDS_P2;PMS_P1;PMS_P2;Temp;Humidity;BMP_temperature;BMP_pressure;BME280_temperature;BME280_humidity;BME280_pressure;Samples;Min_cycle;Max_cycle;Signal;HPM_P1;HPM_P2
2020/12/15 00:00:45;;;;;;;6.05;4.70;;;5.00;99.90;;;;;;5064752;28;20298;-74
2020/12/15 00:03:30;;;;;;;6.03;4.68;;;5.00;99.90;;;;;;5050181;28;20196;-73
2020/12/15 00:06:15;;;;;;;7.25;4.85;;;5.00;99.90;;;;;;5050030;28;20200;-73
2020/12/15 00:09:01;;;;;;;5.70;4.55;;;5.10;99.90;;;;;;5061538;28;20227;-73
2020/12/15 00:11:46;;;;;;;8.38;4.40;;;5.20;99.90;;;;;;5054831;28;20216;-73
2020/12/15 00:14:31;;;;;;;7.50;4.90;;;5.20;99.90;;;;;;5068944;28;20203;-73
2020/12/15 00:17:16;;;;;;;10.13;6.30;;;5.30;99.90;;;;;;5061410;28;20199;-73
2020/12/15 00:20:01;;;;;;;11.68;7.03;;;5.40;99.90;;;;;;5062754;28;20203;-74
2020/12/15 00:22:47;;;;;;;8.00;5.97;;;5.20;99.90;;;;;;5062083;28;20675;-73
2020/12/15 00:25:33;;;;;;;11.32;6.55;;;5.20;99.90;;;;;;5065804;28;20302;-74
2020/12/15 00:28:18;;;;;;;10.70;5.60;;;5.20;99.90;;;;;;5063981;28;20232;-75
2020/12/15 00:31:04;;;;;;;8.07;6.45;;;5.10;99.90;;;;;;5059829;28;20212;-74
2020/12/15 00:33:49;;;;;;;11.90;6.93;;;5.30;99.90;;;;;;5068932;28;20577;-75
2020/12/15 00:36:34;;;;;;;10.02;6.30;;;5.40;99.90;;;;;;5065354;28;20710;-75
2020/12/15 00:39:19;;;;;;;10.15;6.90;;;5.50;99.90;;;;;;5067187;28;20228;-75
2020/12/15 00:42:05;;;;;;;16.80;8.20;;;5.50;99.90;;;;;;5072916;28;20319;-75
2020/12/15 00:44:50;;;;;;;13.63;8.75;;;5.50;99.90;;;;;;5071856;28;20207;-75
2020/12/15 00:47:36;;;;;;;9.90;7.53;;;5.60;99.90;;;;;;5074383;28;20204;-74
2020/12/15 00:50:21;;;;;;;12.13;8.27;;;5.50;99.90;;;;;;5066918;28;20195;-75
2020/12/15 00:53:06;;;;;;;13.43;10.00;;;5.40;99.90;;;;;;5063318;28;20212;-74
2020/12/15 00:55:51;;;;;;;13.13;9.48;;;5.40;99.90;;;;;;5067666;28;20212;-75
2020/12/15 00:58:37;;;;;;;11.35;8.73;;;5.30;99.90;;;;;;5070318;28;20223;-75
2020/12/15 01:01:22;;;;;;;9.25;7.38;;;5.30;99.90;;;;;;5057437;28;20242;-75
2020/12/15 01:04:07;;;;;;;11.25;7.82;;;5.40;99.90;;;;;;5061558;28;20208;-75
2020/12/15 01:06:53;;;;;;;11.88;7.03;;;5.30;99.90;;;;;;5061796;28;20291;-75
2020/12/15 01:09:37;;;;;;;14.30;8.57;;;5.30;99.90;;;;;;5067215;28;20229;-75
2020/12/15 01:12:22;;;;;;;22.75;9.88;;;5.50;99.90;;;;;;5073728;28;20286;-75
2020/12/15 01:15:09;;;;;;;13.30;9.80;;;5.60;99.90;;;;;;5069353;28;20192;-74
2020/12/15 01:17:53;;;;;;;14.80;9.65;;;5.80;99.90;;;;;;5067337;28;20228;-75
2020/12/15 01:20:38;;;;;;;17.13;9.38;;;5.80;99.90;;;;;;5068847;28;20208;-74
2020/12/15 01:23:24;;;;;;;12.18;9.18;;;5.90;99.90;;;;;;5062602;28;20200;-75
2020/12/15 01:26:08;;;;;;;13.40;9.02;;;5.90;99.90;;;;;;5069669;28;20719;-75
2020/12/15 01:28:54;;;;;;;14.10;8.73;;;5.80;99.90;;;;;;5070213;28;20219;-75
2020/12/15 01:31:41;;;;;;;12.75;8.63;;;5.80;99.90;;;;;;5064867;28;20212;-74
2020/12/15 01:34:26;;;;;;;12.60;8.25;;;5.60;99.90;;;;;;5070731;28;20561;-75
2020/12/15 01:37:11;;;;;;;10.43;8.27;;;5.70;99.90;;;;;;5064907;28;20262;-74
2020/12/15 01:39:56;;;;;;;14.23;10.25;;;5.80;99.90;;;;;;5071186;28;20319;-75
2020/12/15 01:42:41;;;;;;;15.02;9.82;;;5.90;99.90;;;;;;5066825;28;20203;-75
2020/12/15 01:45:26;;;;;;;13.23;10.00;;;6.10;99.90;;;;;;5068870;28;20286;-75
2020/12/15 01:48:12;;;;;;;14.57;10.35;;;6.10;99.90;;;;;;5067781;28;20765;-75
2020/12/15 01:50:57;;;;;;;13.10;8.75;;;6.00;99.90;;;;;;5070318;28;20585;-75
2020/12/15 01:53:44;;;;;;;13.32;9.85;;;6.00;99.90;;;;;;5072689;28;20725;-75
2020/12/15 01:56:30;;;;;;;11.88;10.30;;;6.00;99.90;;;;;;5067503;28;20219;-75
2020/12/15 01:59:15;;;;;;;13.60;10.43;;;6.10;99.90;;;;;;5059661;28;20224;-75
2020/12/15 02:02:00;;;;;;;15.43;10.55;;;6.20;99.90;;;;;;5062367;28;20292;-75
2020/12/15 02:04:48;;;;;;;12.25;10.43;;;6.20;99.90;;;;;;5068362;28;20246;-75
2020/12/15 02:07:33;;;;;;;13.65;11.07;;;6.20;99.90;;;;;;5060706;28;20209;-75
2020/12/15 02:10:19;;;;;;;17.05;11.02;;;6.30;99.90;;;;;;5063862;28;20212;-74
2020/12/15 02:13:04;;;;;;;13.77;11.70;;;6.30;99.90;;;;;;5061480;28;20624;-74
2020/12/15 02:15:50;;;;;;;15.45;10.68;;;6.20;99.90;;;;;;5061314;28;20205;-75
2020/12/15 02:18:35;;;;;;;14.32;9.88;;;6.10;99.90;;;;;;5066321;28;20737;-75
2020/12/15 02:21:21;;;;;;;16.10;10.70;;;5.90;99.90;;;;;;5057671;28;20212;-75
2020/12/15 02:24:07;;;;;;;13.93;9.60;;;5.90;99.90;;;;;;5059743;28;20208;-75
2020/12/15 02:26:52;;;;;;;13.05;10.00;;;5.90;99.90;;;;;;5067792;28;20756;-75
2020/12/15 02:29:38;;;;;;;12.52;9.93;;;5.90;99.90;;;;;;5070617;28;20302;-75
2020/12/15 02:32:23;;;;;;;13.60;10.45;;;5.90;99.90;;;;;;5071843;28;20227;-75
2020/12/15 02:35:08;;;;;;;13.43;9.82;;;6.00;99.90;;;;;;5065577;28;20595;-75
2020/12/15 02:37:53;;;;;;;17.00;11.48;;;6.10;99.90;;;;;;5066470;28;20220;-75
2020/12/15 02:40:39;;;;;;;15.38;11.70;;;6.20;99.90;;;;;;5068710;28;20258;-74
2020/12/15 02:43:24;;;;;;;16.17;11.68;;;6.20;99.90;;;;;;5066353;28;20323;-75
2020/12/15 02:46:09;;;;;;;16.63;12.68;;;6.10;99.90;;;;;;5057709;28;20208;-75
2020/12/15 02:48:56;;;;;;;18.33;13.60;;;6.10;99.90;;;;;;5068898;28;20219;-75
2020/12/15 02:51:41;;;;;;;17.80;13.80;;;6.20;99.90;;;;;;5062310;28;21177;-75
2020/12/15 02:54:26;;;;;;;17.35;13.52;;;6.20;99.90;;;;;;5064812;28;20323;-75
2020/12/15 02:57:12;;;;;;;19.65;14.68;;;6.20;99.90;;;;;;5056214;28;20204;-75
2020/12/15 02:59:57;;;;;;;22.15;13.77;;;6.30;99.90;;;;;;5065782;28;20204;-75
2020/12/15 03:02:42;;;;;;;17.77;14.60;;;6.20;99.90;;;;;;5065719;28;20207;-75
2020/12/15 03:05:27;;;;;;;15.75;13.18;;;6.30;99.90;;;;;;5067527;28;20985;-75
2020/12/15 03:08:12;;;;;;;17.77;13.75;;;6.20;99.90;;;;;;5063140;28;20254;-75
2020/12/15 03:10:57;;;;;;;22.63;14.50;;;6.10;99.90;;;;;;5054953;28;20208;-75
2020/12/15 03:13:43;;;;;;;16.90;13.55;;;6.10;99.90;;;;;;5065978;28;20224;-75
2020/12/15 03:16:28;;;;;;;16.05;13.60;;;6.10;99.90;;;;;;5066141;28;20292;-75
2020/12/15 03:19:13;;;;;;;17.33;13.00;;;6.10;99.90;;;;;;5054725;28;20220;-75
2020/12/15 03:21:58;;;;;;;16.00;13.32;;;6.10;99.90;;;;;;5065639;28;20227;-75
2020/12/15 03:24:43;;;;;;;15.65;13.50;;;6.00;99.90;;;;;;5060192;28;20207;-75
2020/12/15 03:27:28;;;;;;;22.08;13.50;;;6.10;99.90;;;;;;5066560;28;20208;-75
2020/12/15 03:30:14;;;;;;;17.40;14.40;;;6.00;99.90;;;;;;5051708;28;20209;-75
2020/12/15 03:32:59;;;;;;;27.75;15.55;;;6.00;99.90;;;;;;5065546;28;20216;-75
2020/12/15 03:35:45;;;;;;;18.73;14.70;;;6.10;99.90;;;;;;5051312;28;20679;-74
2020/12/15 03:38:30;;;;;;;17.80;13.93;;;6.00;99.90;;;;;;5061790;28;20220;-75
2020/12/15 03:41:15;;;;;;;18.42;12.60;;;6.00;99.90;;;;;;5056965;28;20287;-75
2020/12/15 03:44:00;;;;;;;20.55;14.43;;;6.00;99.90;;;;;;5066534;28;20218;-75
2020/12/15 03:46:46;;;;;;;18.83;12.93;;;6.10;99.90;;;;;;5068369;28;20330;-75
2020/12/15 03:49:31;;;;;;;18.80;12.35;;;6.10;99.90;;;;;;5068327;28;20762;-75
2020/12/15 03:52:16;;;;;;;15.65;11.40;;;6.10;99.90;;;;;;5064770;28;20208;-75
2020/12/15 03:55:01;;;;;;;17.83;11.13;;;6.10;99.90;;;;;;5064411;28;20212;-75
2020/12/15 03:57:46;;;;;;;13.32;10.38;;;6.10;99.90;;;;;;5059806;28;20235;-75
2020/12/15 04:00:31;;;;;;;12.38;10.32;;;6.10;99.90;;;;;;5067152;28;20275;-75
2020/12/15 04:03:17;;;;;;;16.20;11.63;;;6.10;99.90;;;;;;5051660;28;20196;-75
2020/12/15 04:06:02;;;;;;;16.73;11.80;;;6.10;99.90;;;;;;5069567;28;20721;-75
2020/12/15 04:08:47;;;;;;;14.45;10.75;;;6.20;99.90;;;;;;5061182;28;20347;-75
2020/12/15 04:11:32;;;;;;;15.88;11.45;;;6.30;99.90;;;;;;5067535;28;20204;-75
2020/12/15 04:14:17;;;;;;;14.23;11.43;;;6.40;99.90;;;;;;5066431;28;20953;-75
2020/12/15 04:17:02;;;;;;;13.75;10.65;;;6.50;99.90;;;;;;5070213;28;20322;-75
2020/12/15 04:19:48;;;;;;;14.18;11.63;;;6.60;99.90;;;;;;5069037;28;20703;-75
2020/12/15 04:22:33;;;;;;;15.45;11.27;;;6.60;99.90;;;;;;5063839;28;20197;-75
2020/12/15 04:25:18;;;;;;;29.10;12.23;;;6.60;99.90;;;;;;5065463;28;20204;-75
2020/12/15 04:28:03;;;;;;;15.00;11.77;;;6.40;99.90;;;;;;5065623;28;20601;-75
2020/12/15 04:30:49;;;;;;;16.00;11.82;;;6.40;99.90;;;;;;5068505;28;20211;-75
2020/12/15 04:33:34;;;;;;;15.90;12.27;;;6.40;99.90;;;;;;5067768;28;20231;-75
2020/12/15 04:36:21;;;;;;;15.88;13.18;;;6.30;99.90;;;;;;5056199;28;20327;-75
2020/12/15 04:39:06;;;;;;;17.10;13.23;;;6.30;99.90;;;;;;5056714;28;20232;-75
2020/12/15 04:41:51;;;;;;;16.35;12.10;;;6.50;99.90;;;;;;5065833;28;20230;-75
2020/12/15 04:44:37;;;;;;;16.45;12.23;;;6.40;99.90;;;;;;5068783;28;20235;-75
2020/12/15 04:47:33;;;;;;;14.50;12.18;;;6.30;99.90;;;;;;5059294;28;20573;-75
2020/12/15 04:50:23;;;;;;;17.38;12.50;;;6.30;99.90;;;;;;5055915;28;20242;-75
2020/12/15 04:53:10;;;;;;;15.65;12.80;;;6.30;99.90;;;;;;5061897;28;20239;-75
2020/12/15 04:55:56;;;;;;;14.60;10.98;;;6.30;99.90;;;;;;5068116;28;20204;-75
2020/12/15 04:58:48;;;;;;;14.27;12.65;;;6.30;99.90;;;;;;5067553;28;20278;-75
2020/12/15 05:01:35;;;;;;;16.58;12.32;;;6.30;99.90;;;;;;5070051;28;20196;-75
2020/12/15 05:04:24;;;;;;;15.60;12.10;;;6.30;99.90;;;;;;5054964;28;20255;-75
2020/12/15 05:07:11;;;;;;;15.00;11.40;;;6.30;99.90;;;;;;5055842;28;20208;-75
2020/12/15 05:09:57;;;;;;;19.80;10.73;;;6.40;99.90;;;;;;5067484;28;20271;-75
2020/12/15 05:12:42;;;;;;;12.48;10.35;;;6.50;99.90;;;;;;5069646;28;20794;-75
2020/12/15 05:15:27;;;;;;;13.73;10.60;;;6.50;99.90;;;;;;5068640;28;20279;-75
2020/12/15 05:18:20;;;;;;;11.50;10.30;;;6.60;99.90;;;;;;5064366;28;20725;-75
2020/12/15 05:21:13;;;;;;;12.50;9.65;;;6.60;99.90;;;;;;5070375;28;20247;-75
2020/12/15 05:23:58;;;;;;;14.48;9.98;;;6.70;99.90;;;;;;5063916;28;20294;-75
2020/12/15 05:26:45;;;;;;;13.75;10.40;;;6.80;99.90;;;;;;5072933;28;20215;-75
2020/12/15 05:29:30;;;;;;;25.27;11.57;;;6.80;99.90;;;;;;5062797;28;20247;-75
2020/12/15 05:32:17;;;;;;;13.85;11.10;;;6.70;99.90;;;;;;5064289;28;20197;-75
2020/12/15 05:35:09;;;;;;;14.15;10.57;;;6.70;99.90;;;;;;5062777;28;20215;-75
2020/12/15 05:37:55;;;;;;;14.10;10.40;;;6.70;99.90;;;;;;5067452;28;20350;-75
2020/12/15 05:40:41;;;;;;;18.30;11.40;;;6.70;99.90;;;;;;5072211;28;20204;-75
2020/12/15 05:43:27;;;;;;;14.20;10.88;;;6.80;99.90;;;;;;5067023;28;20614;-75
2020/12/15 05:46:12;;;;;;;13.18;11.00;;;6.90;99.90;;;;;;5054119;28;20223;-75
2020/12/15 05:49:04;;;;;;;16.50;11.63;;;6.80;99.90;;;;;;5069322;28;20220;-75
2020/12/15 05:51:49;;;;;;;13.52;10.35;;;6.60;99.90;;;;;;5068432;28;20204;-75
2020/12/15 05:54:34;;;;;;;18.05;11.32;;;6.70;99.90;;;;;;5058675;28;20261;-75
2020/12/15 05:57:23;;;;;;;15.95;11.57;;;6.70;99.90;;;;;;5064346;28;20196;-75
2020/12/15 06:00:10;;;;;;;13.60;11.13;;;6.70;99.90;;;;;;5067486;28;20272;-75
2020/12/15 06:03:00;;;;;;;13.00;9.65;;;6.60;99.90;;;;;;5060491;28;20201;-75
2020/12/15 06:05:46;;;;;;;15.00;10.18;;;6.60;99.90;;;;;;5071054;28;20250;-75
2020/12/15 06:08:34;;;;;;;15.25;10.98;;;6.60;99.90;;;;;;5057969;28;20295;-75
2020/12/15 06:11:21;;;;;;;12.00;10.35;;;6.70;99.90;;;;;;5061934;28;20262;-75
2020/12/15 06:14:06;;;;;;;14.52;10.75;;;6.80;99.90;;;;;;5066810;28;20225;-75
2020/12/15 06:16:52;;;;;;;13.02;10.90;;;6.90;99.90;;;;;;5065355;28;20208;-75
2020/12/15 06:19:37;;;;;;;15.45;10.43;;;6.90;99.90;;;;;;5067781;28;20231;-75
2020/12/15 06:22:24;;;;;;;12.77;10.10;;;7.00;99.90;;;;;;5063641;28;20686;-75
2020/12/15 06:25:09;;;;;;;15.45;10.40;;;7.00;99.90;;;;;;5058538;28;20204;-75
2020/12/15 06:28:03;;;;;;;14.88;10.18;;;7.00;99.90;;;;;;5066063;28;20228;-75
2020/12/15 06:30:58;;;;;;;12.50;9.38;;;7.00;99.90;;;;;;5069680;28;20689;-75
2020/12/15 06:33:45;;;;;;;11.00;8.98;;;7.00;99.90;;;;;;5068083;28;20714;-75
2020/12/15 06:36:33;;;;;;;13.05;10.30;;;7.00;99.90;;;;;;5064635;28;20304;-75
2020/12/15 06:39:18;;;;;;;14.68;10.02;;;7.00;99.90;;;;;;5053258;28;20266;-74
2020/12/15 06:42:07;;;;;;;12.87;10.00;;;7.10;99.90;;;;;;5061821;28;20203;-75
2020/12/15 06:45:06;;;;;;;14.45;9.35;;;7.10;99.90;;;;;;5070813;28;20426;-75
2020/12/15 06:47:59;;;;;;;11.35;9.27;;;7.10;99.90;;;;;;5063198;28;20284;-75
2020/12/15 06:50:46;;;;;;;14.43;9.82;;;7.10;99.90;;;;;;5066896;28;20930;-75
2020/12/15 06:53:31;;;;;;;15.55;10.52;;;7.00;99.90;;;;;;5068003;28;20270;-75
2020/12/15 06:56:26;;;;;;;12.88;9.75;;;7.00;99.90;;;;;;5067114;28;20334;-75
2020/12/15 06:59:17;;;;;;;11.57;9.60;;;7.00;99.90;;;;;;5069171;28;20217;-75
2020/12/15 07:02:14;;;;;;;14.18;9.90;;;7.00;99.90;;;;;;5068684;28;20759;-75
2020/12/15 07:05:17;;;;;;;14.00;10.30;;;7.10;99.90;;;;;;5061436;28;20243;-75
2020/12/15 07:08:08;;;;;;;13.45;11.75;;;7.10;99.90;;;;;;5065805;28;20266;-75
2020/12/15 07:10:53;;;;;;;21.95;13.57;;;7.20;99.90;;;;;;5064512;28;20249;-75
2020/12/15 07:13:38;;;;;;;15.10;12.05;;;7.20;99.90;;;;;;5067073;28;20228;-75
2020/12/15 07:16:23;;;;;;;17.45;12.65;;;7.10;99.90;;;;;;5056962;28;20201;-75
2020/12/15 07:19:08;;;;;;;18.58;13.18;;;7.20;99.90;;;;;;5055184;28;20236;-75
2020/12/15 07:21:53;;;;;;;16.75;13.05;;;7.20;99.90;;;;;;5068039;28;20200;-75
2020/12/15 07:24:39;;;;;;;18.02;12.75;;;7.30;99.90;;;;;;5068921;28;20228;-75
2020/12/15 07:27:27;;;;;;;18.42;13.93;;;7.30;99.90;;;;;;5070918;28;20261;-75
2020/12/15 07:30:14;;;;;;;17.23;12.68;;;7.10;99.90;;;;;;5058773;28;20752;-75
2020/12/15 07:32:59;;;;;;;18.90;13.95;;;7.10;99.90;;;;;;5066610;28;20684;-75
2020/12/15 07:35:44;;;;;;;21.23;14.88;;;7.10;99.90;;;;;;5062269;28;20204;-75
2020/12/15 07:38:31;;;;;;;22.30;14.13;;;7.00;99.90;;;;;;5069908;28;20239;-75
2020/12/15 07:41:17;;;;;;;19.42;12.98;;;7.00;99.90;;;;;;5063674;28;20706;-75
2020/12/15 07:44:02;;;;;;;17.13;12.48;;;7.00;99.90;;;;;;5063263;28;20205;-75
2020/12/15 07:46:48;;;;;;;15.85;12.07;;;7.00;99.90;;;;;;5065458;28;20259;-75
2020/12/15 07:49:34;;;;;;;19.58;14.02;;;7.10;99.90;;;;;;5054412;28;20274;-75
2020/12/15 07:52:28;;;;;;;16.73;11.73;;;7.10;99.90;;;;;;5056417;28;20227;-75
2020/12/15 07:55:15;;;;;;;18.55;13.15;;;7.20;99.90;;;;;;5067551;28;20850;-75
2020/12/15 07:58:03;;;;;;;17.27;12.52;;;7.10;99.90;;;;;;5066273;28;20259;-75
2020/12/15 08:00:50;;;;;;;15.18;12.85;;;7.20;99.90;;;;;;5059044;28;20254;-75
2020/12/15 08:03:35;;;;;;;16.70;11.48;;;7.20;99.90;;;;;;5061999;28;20976;-75
2020/12/15 08:06:20;;;;;;;14.88;12.27;;;7.30;99.90;;;;;;5064765;28;20683;-75
2020/12/15 08:09:07;;;;;;;18.55;12.82;;;7.30;99.90;;;;;;5066824;28;20250;-75
2020/12/15 08:11:52;;;;;;;19.60;13.10;;;7.30;99.90;;;;;;5065590;28;20631;-75
2020/12/15 08:14:44;;;;;;;15.38;12.98;;;7.30;99.90;;;;;;5059674;28;20235;-75
2020/12/15 08:17:32;;;;;;;16.83;12.55;;;7.30;99.90;;;;;;5060812;28;20254;-75
2020/12/15 08:20:23;;;;;;;17.30;11.90;;;7.40;99.90;;;;;;5058369;28;20208;-75
2020/12/15 08:23:09;;;;;;;14.50;12.45;;;7.40;99.90;;;;;;5067974;28;20242;-75
2020/12/15 08:25:57;;;;;;;17.10;13.13;;;7.40;99.90;;;;;;5059632;28;20280;-75
2020/12/15 08:28:43;;;;;;;24.48;14.18;;;7.30;99.90;;;;;;5065491;28;20235;-75
2020/12/15 08:31:29;;;;;;;19.95;13.90;;;7.30;99.90;;;;;;5069175;28;20282;-75
2020/12/15 08:34:16;;;;;;;15.30;12.52;;;7.30;99.90;;;;;;5064149;28;20745;-75
2020/12/15 08:37:02;;;;;;;15.35;12.25;;;7.40;99.90;;;;;;5071506;28;20200;-75
2020/12/15 08:39:48;;;;;;;16.55;12.60;;;7.40;99.90;;;;;;5068667;28;20377;-75
2020/12/15 08:42:34;;;;;;;13.73;11.13;;;7.40;99.90;;;;;;5066475;28;20286;-75
2020/12/15 08:45:19;;;;;;;16.35;11.23;;;7.50;99.90;;;;;;5068227;28;20523;-75
2020/12/15 08:48:05;;;;;;;14.90;11.73;;;7.50;99.90;;;;;;5057030;28;20224;-75
2020/12/15 08:50:51;;;;;;;15.60;11.48;;;7.40;99.90;;;;;;5068972;28;20451;-75
2020/12/15 08:53:36;;;;;;;17.05;12.20;;;7.30;99.90;;;;;;5060821;28;20800;-75
2020/12/15 08:56:21;;;;;;;14.60;12.05;;;7.30;99.90;;;;;;5066327;28;20208;-75
2020/12/15 08:59:11;;;;;;;15.20;11.57;;;7.40;99.90;;;;;;5064380;28;20986;-75
2020/12/15 09:01:59;;;;;;;15.95;12.55;;;7.40;99.90;;;;;;5068828;28;20248;-75
2020/12/15 09:04:45;;;;;;;16.67;12.00;;;7.50;99.90;;;;;;5059794;28;20197;-76
2020/12/15 09:07:30;;;;;;;16.90;12.15;;;7.60;99.90;;;;;;5065768;28;20618;-76
2020/12/15 09:10:16;;;;;;;17.15;11.50;;;7.70;99.90;;;;;;5053149;28;20185;-75
2020/12/15 09:13:04;;;;;;;14.13;11.10;;;7.70;99.90;;;;;;5072422;28;20215;-76
2020/12/15 09:15:51;;;;;;;17.40;13.38;;;7.80;99.90;;;;;;5068789;28;20901;-75
2020/12/15 09:18:38;;;;;;;17.63;13.60;;;7.80;99.90;;;;;;5068978;28;20215;-75
2020/12/15 09:21:24;;;;;;;16.97;13.47;;;7.90;99.90;;;;;;5050457;28;20204;-76
2020/12/15 09:24:10;;;;;;;19.85;14.88;;;7.90;99.90;;;;;;5067707;28;20781;-76
2020/12/15 09:26:55;;;;;;;22.60;14.50;;;7.90;99.90;;;;;;5063993;28;20215;-76
2020/12/15 09:29:40;;;;;;;17.08;13.30;;;8.00;99.90;;;;;;5068164;28;20809;-76
2020/12/15 09:32:31;;;;;;;15.75;12.70;;;8.10;99.90;;;;;;5060117;28;20213;-76
2020/12/15 09:35:16;;;;;;;18.63;14.32;;;8.10;99.90;;;;;;5051154;28;20247;-76
2020/12/15 09:38:03;;;;;;;16.37;12.97;;;8.20;99.90;;;;;;5064903;28;20224;-76
2020/12/15 09:40:47;;;;;;;17.85;13.80;;;8.10;99.90;;;;;;5056945;28;20454;-76
2020/12/15 09:43:33;;;;;;;13.82;11.98;;;8.10;99.90;;;;;;5070586;28;20200;-76
2020/12/15 09:46:19;;;;;;;14.50;11.50;;;8.10;99.90;;;;;;5064361;28;20569;-75
2020/12/15 09:49:04;;;;;;;18.03;12.50;;;8.10;99.90;;;;;;5062451;28;20540;-75
2020/12/15 09:51:49;;;;;;;17.60;14.32;;;8.20;99.90;;;;;;5065847;28;21016;-76
2020/12/15 09:54:35;;;;;;;17.92;13.10;;;8.30;99.90;;;;;;5070904;28;20228;-74
2020/12/15 09:57:20;;;;;;;15.80;13.00;;;8.40;99.90;;;;;;5070296;28;20177;-74
2020/12/15 10:00:05;;;;;;;16.95;12.75;;;8.50;99.90;;;;;;5070456;28;20998;-74
2020/12/15 10:02:50;;;;;;;18.50;12.67;;;8.60;99.90;;;;;;5071380;28;20193;-74
2020/12/15 10:05:36;;;;;;;15.45;11.90;;;8.70;99.90;;;;;;5064600;28;20945;-73
2020/12/15 10:08:21;;;;;;;11.23;10.10;;;8.80;99.90;;;;;;5052620;28;20221;-74
2020/12/15 10:11:08;;;;;;;11.03;7.93;;;8.80;99.90;;;;;;5051072;28;20404;-74
2020/12/15 10:13:53;;;;;;;12.60;10.50;;;8.80;99.90;;;;;;5068998;28;20608;-74
2020/12/15 10:16:38;;;;;;;14.93;9.80;;;8.90;99.90;;;;;;5051287;28;20428;-74
2020/12/15 10:19:23;;;;;;;13.38;8.82;;;8.90;99.90;;;;;;5052691;28;20550;-74
2020/12/15 10:22:08;;;;;;;13.15;7.70;;;8.90;99.90;;;;;;5051858;28;20231;-74
2020/12/15 10:24:53;;;;;;;11.50;8.07;;;9.00;99.90;;;;;;5049666;28;20887;-74
2020/12/15 10:27:38;;;;;;;10.63;5.30;;;9.00;99.90;;;;;;5049683;28;20439;-74
2020/12/15 10:30:24;;;;;;;15.03;7.80;;;9.00;99.90;;;;;;5051097;28;20785;-73
2020/12/15 10:33:11;;;;;;;11.37;7.57;;;9.10;99.90;;;;;;5056534;28;20459;-74
2020/12/15 10:35:56;;;;;;;12.67;10.57;;;9.10;99.90;;;;;;5071137;28;20377;-74
2020/12/15 10:38:41;;;;;;;17.30;13.93;;;9.20;99.90;;;;;;5069456;28;20446;-74
2020/12/15 10:41:27;;;;;;;20.30;15.43;;;9.20;99.90;;;;;;5061072;28;20458;-76
2020/12/15 10:44:14;;;;;;;23.43;17.13;;;9.20;99.90;;;;;;5067732;28;20865;-76
2020/12/15 10:47:01;;;;;;;20.67;17.60;;;9.10;99.90;;;;;;5065973;28;20450;-76
2020/12/15 10:49:46;;;;;;;26.37;16.80;;;9.00;99.90;;;;;;5069405;28;21066;-76
2020/12/15 10:52:31;;;;;;;25.97;16.67;;;9.10;99.90;;;;;;5060631;28;20930;-76
2020/12/15 10:55:17;;;;;;;20.07;15.57;;;9.20;99.90;;;;;;5048980;28;20423;-76
2020/12/15 10:58:02;;;;;;;25.10;16.90;;;9.10;99.90;;;;;;5068057;28;20466;-76
2020/12/15 11:00:48;;;;;;;19.60;15.83;;;9.10;99.90;;;;;;5069439;28;20471;-76
2020/12/15 11:03:33;;;;;;;19.30;16.90;;;9.00;99.90;;;;;;5065455;28;20516;-76
2020/12/15 11:06:18;;;;;;;20.00;16.13;;;9.00;99.90;;;;;;5057074;28;20446;-76
2020/12/15 11:09:04;;;;;;;24.17;15.70;;;9.00;99.90;;;;;;5052110;28;20851;-76
2020/12/15 11:11:50;;;;;;;18.50;15.23;;;9.10;99.90;;;;;;5063778;28;20455;-76
2020/12/15 11:14:35;;;;;;;18.17;14.40;;;9.00;99.90;;;;;;5067339;28;20462;-76
2020/12/15 11:17:21;;;;;;;17.73;13.90;;;9.10;99.90;;;;;;5065762;28;20507;-76
2020/12/15 11:20:06;;;;;;;17.80;15.90;;;9.00;99.90;;;;;;5066747;28;20481;-76
2020/12/15 11:22:51;;;;;;;19.27;14.83;;;9.10;99.90;;;;;;5056942;28;20538;-76
2020/12/15 11:25:36;;;;;;;20.03;15.93;;;9.10;99.90;;;;;;5069487;28;20868;-75
2020/12/15 11:28:21;;;;;;;17.17;14.83;;;9.00;99.90;;;;;;5067095;28;20470;-75
2020/12/15 11:31:06;;;;;;;21.30;14.20;;;9.00;99.90;;;;;;5059518;28;20455;-76
2020/12/15 11:33:52;;;;;;;29.07;16.07;;;9.00;99.90;;;;;;5068502;28;20973;-75
2020/12/15 11:36:38;;;;;;;19.17;16.33;;;9.00;99.90;;;;;;5061431;28;20462;-75
2020/12/15 11:39:23;;;;;;;17.07;14.70;;;9.00;99.90;;;;;;5070910;28;20438;-76
2020/12/15 11:42:10;;;;;;;20.17;15.53;;;9.10;99.90;;;;;;5059867;28;20434;-75
2020/12/15 11:44:55;;;;;;;18.67;13.20;;;9.20;99.90;;;;;;5068410;28;20526;-76
2020/12/15 11:47:41;;;;;;;17.13;15.03;;;9.20;99.90;;;;;;5061902;28;20447;-75
2020/12/15 11:50:29;;;;;;;22.53;13.60;;;9.20;99.90;;;;;;5064914;28;20473;-75
2020/12/15 11:53:14;;;;;;;22.80;14.77;;;9.20;99.90;;;;;;5058861;28;20541;-76
2020/12/15 11:56:00;;;;;;;13.43;10.40;;;9.10;99.90;;;;;;5067383;28;20473;-76
2020/12/15 11:58:45;;;;;;;19.47;10.77;;;9.10;99.90;;;;;;5066297;28;20236;-76
2020/12/15 12:01:32;;;;;;;9.57;7.80;;;9.10;99.90;;;;;;5069061;28;20469;-76
2020/12/15 12:04:17;;;;;;;10.33;6.30;;;9.10;99.90;;;;;;5066175;28;21749;-76
2020/12/15 12:07:06;;;;;;;12.53;7.40;;;9.10;99.90;;;;;;5067161;28;20462;-77
2020/12/15 12:09:51;;;;;;;12.53;6.67;;;9.10;99.90;;;;;;5063425;28;20666;-75
2020/12/15 12:12:36;;;;;;;8.70;6.43;;;9.00;99.90;;;;;;5067818;28;20434;-76
2020/12/15 12:15:24;;;;;;;9.00;7.33;;;9.10;99.90;;;;;;5056871;28;20455;-76
2020/12/15 12:18:09;;;;;;;8.37;6.50;;;9.00;99.90;;;;;;5063247;28;21016;-76
2020/12/15 12:20:54;;;;;;;8.07;6.23;;;8.90;99.90;;;;;;5062700;28;20482;-75
2020/12/15 12:23:42;;;;;;;8.00;6.30;;;9.00;99.90;;;;;;5067718;28;20419;-75
2020/12/15 12:26:27;;;;;;;9.10;6.83;;;8.90;99.90;;;;;;5059713;28;20478;-75
2020/12/15 12:29:12;;;;;;;10.90;6.97;;;9.00;99.90;;;;;;5069979;28;20803;-75
2020/12/15 12:31:58;;;;;;;10.07;8.07;;;8.90;99.90;;;;;;5069765;28;20430;-76
2020/12/15 12:34:42;;;;;;;11.15;7.90;;;8.90;99.90;;;;;;5059394;28;20890;-75
2020/12/15 12:37:27;;;;;;;9.25;7.43;;;8.90;99.90;;;;;;5067550;28;20711;-76
2020/12/15 12:40:14;;;;;;;11.43;7.50;;;8.90;99.90;;;;;;5058805;28;20203;-76
2020/12/15 12:43:02;;;;;;;9.47;8.17;;;8.90;99.90;;;;;;5069574;28;20450;-75
2020/12/15 12:45:49;;;;;;;10.73;7.50;;;8.90;99.90;;;;;;5062858;28;20439;-75
2020/12/15 12:48:35;;;;;;;17.10;7.30;;;9.00;99.90;;;;;;5065999;28;20465;-75
2020/12/15 12:51:20;;;;;;;8.90;7.03;;;9.00;99.90;;;;;;5058970;28;20437;-76
2020/12/15 12:54:05;;;;;;;9.20;7.53;;;9.10;99.90;;;;;;5060647;28;20473;-75
2020/12/15 12:56:51;;;;;;;9.43;6.60;;;9.00;99.90;;;;;;5062860;28;20504;-76
2020/12/15 12:59:36;;;;;;;12.93;6.80;;;9.00;99.90;;;;;;5067616;28;20450;-76
2020/12/15 13:02:21;;;;;;;11.80;6.33;;;9.00;99.90;;;;;;5061499;28;20496;-76
2020/12/15 13:05:06;;;;;;;11.37;6.17;;;9.00;99.90;;;;;;5059528;28;20457;-76
2020/12/15 13:07:52;;;;;;;10.47;6.10;;;9.00;99.90;;;;;;5067739;28;21061;-76
2020/12/15 13:10:37;;;;;;;7.23;6.43;;;9.10;99.90;;;;;;5070553;28;20414;-76
2020/12/15 13:13:23;;;;;;;8.60;6.53;;;9.20;99.90;;;;;;5066816;28;20608;-76
2020/12/15 13:16:08;;;;;;;8.67;6.50;;;9.20;99.90;;;;;;5066398;28;20988;-76
2020/12/15 13:18:53;;;;;;;15.27;9.43;;;9.20;99.90;;;;;;5058824;28;20478;-76
2020/12/15 13:21:38;;;;;;;13.30;8.33;;;9.20;99.90;;;;;;5066029;28;20501;-76
2020/12/15 13:24:23;;;;;;;15.50;8.70;;;9.20;99.90;;;;;;5067951;28;20832;-76
2020/12/15 13:27:09;;;;;;;9.60;7.00;;;9.10;99.90;;;;;;5068805;28;20466;-76
2020/12/15 13:29:55;;;;;;;9.60;7.23;;;9.10;99.90;;;;;;5070303;28;20831;-76
2020/12/15 13:32:40;;;;;;;8.90;6.07;;;9.10;99.90;;;;;;5069328;28;20450;-76
2020/12/15 13:35:25;;;;;;;8.90;7.00;;;9.10;99.90;;;;;;5073479;28;20278;-76
2020/12/15 13:38:10;;;;;;;10.13;6.37;;;9.20;99.90;;;;;;5070599;28;20948;-76
2020/12/15 13:40:55;;;;;;;6.80;5.63;;;9.20;99.90;;;;;;5070236;28;20435;-75
2020/12/15 13:43:42;;;;;;;6.65;5.20;;;9.20;99.90;;;;;;5070146;28;20462;-74
2020/12/15 13:46:28;;;;;;;11.38;4.95;;;9.10;99.90;;;;;;5051130;28;20196;-74
2020/12/15 13:49:13;;;;;;;7.03;5.13;;;9.10;99.90;;;;;;5062043;28;20377;-74
2020/12/15 13:51:58;;;;;;;8.00;5.63;;;9.20;99.90;;;;;;5072336;28;20400;-74
2020/12/15 13:54:43;;;;;;;11.13;5.70;;;9.20;99.90;;;;;;5070019;28;20449;-74
2020/12/15 13:57:28;;;;;;;6.53;5.13;;;9.10;99.90;;;;;;5069913;28;20423;-74
2020/12/15 14:00:13;;;;;;;11.23;6.07;;;9.10;99.90;;;;;;5059771;28;20442;-74
2020/12/15 14:02:59;;;;;;;10.13;6.22;;;9.20;99.90;;;;;;5072922;28;20565;-74
2020/12/15 14:05:45;;;;;;;8.80;6.15;;;9.20;99.90;;;;;;5052342;28;20180;-74
2020/12/15 14:08:30;;;;;;;9.77;6.30;;;9.20;99.90;;;;;;5069906;28;20355;-75
2020/12/15 14:11:16;;;;;;;9.13;5.55;;;9.20;99.90;;;;;;5063085;28;20460;-75
2020/12/15 14:14:01;;;;;;;14.73;5.70;;;9.20;99.90;;;;;;5064463;28;20711;-75
2020/12/15 14:16:46;;;;;;;12.30;6.87;;;9.20;99.90;;;;;;5072669;28;20426;-75